Aviation Digital Data Service (ADDS)

Output produced by METARs form (1816 UTC 19 April 2019)
found at http://www.aviationweather.gov/metar/data/
 
Forecast for: MRLB (LIBERIA/TOMAS G , CR)
Text: MRLB 191700Z 1918/2018 28007KT 9999 FEW040 TX36/1919Z TN22/2012Z
Forecast period: 1800 UTC 19 April 2019 to 0000 UTC 20 April 2019
Forecast type: FROM: standard forecast or significant change
Winds: from the W (280 degrees) at 8 MPH (7 knots; 3.6 m/s)
Visibility: 6 or more miles 10+ km)
Ceiling: at least 12,000 feet AGL
Clouds: few clouds at 4000 feet AGL
Weather: no significant weather forecast for this period
Text: BECMG 2000/2002 08007KT
Forecast period: 0000 to 1800 UTC 20 April 2019
Forecast type: BECOMING: Conditions expected to become as follows by 0200 UTC 20 April 2019
Winds: from the E (80 degrees) at 8 MPH (7 knots; 3.6 m/s)
Visibility: 6 or more miles 10+ km)
Ceiling: at least 12,000 feet AGL
Clouds: few clouds at 4000 feet AGL
Weather: no significant weather forecast for this period